sensor_id;sensor_type;location;lat;lon;timestamp;temperature;humidity
66128;DHT22;52925;52.436;-1.952;2022-12-18T00:00:07;6.20;69.80
66128;DHT22;52925;52.436;-1.952;2022-12-18T00:01:35;6.20;69.80
66128;DHT22;52925;52.436;-1.952;2022-12-18T00:02:55;6.10;69.70
66128;DHT22;52925;52.436;-1.952;2022-12-18T00:04:22;6.10;69.80
66128;DHT22;52925;52.436;-1.952;2022-12-18T00:05:51;6.20;69.70
66128;DHT22;52925;52.436;-1.952;2022-12-18T00:07:12;6.10;69.70
66128;DHT22;52925;52.436;-1.952;2022-12-18T00:08:32;6.10;69.70
66128;DHT22;52925;52.436;-1.952;2022-12-18T00:09:53;6.10;69.70
66128;DHT22;52925;52.436;-1.952;2022-12-18T00:11:17;6.20;69.70
66128;DHT22;52925;52.436;-1.952;2022-12-18T00:12:37;6.10;69.70
66128;DHT22;52925;52.436;-1.952;2022-12-18T00:13:59;6.10;69.70
66128;DHT22;52925;52.436;-1.952;2022-12-18T00:15:19;6.10;69.60
66128;DHT22;52925;52.436;-1.952;2022-12-18T00:16:42;6.20;69.60
66128;DHT22;52925;52.436;-1.952;2022-12-18T00:18:04;6.20;69.70
66128;DHT22;52925;52.436;-1.952;2022-12-18T00:19:25;6.20;69.60
66128;DHT22;52925;52.436;-1.952;2022-12-18T00:20:46;6.20;69.60
66128;DHT22;52925;52.436;-1.952;2022-12-18T00:22:08;6.20;69.60
66128;DHT22;52925;52.436;-1.952;2022-12-18T00:23:30;6.20;69.60
66128;DHT22;52925;52.436;-1.952;2022-12-18T00:24:50;6.20;69.50
66128;DHT22;52925;52.436;-1.952;2022-12-18T00:26:13;6.20;69.50
66128;DHT22;52925;52.436;-1.952;2022-12-18T00:27:34;6.20;69.60
66128;DHT22;52925;52.436;-1.952;2022-12-18T00:28:58;6.20;69.50
66128;DHT22;52925;52.436;-1.952;2022-12-18T00:30:18;6.20;69.40
66128;DHT22;52925;52.436;-1.952;2022-12-18T00:31:39;6.20;69.50
66128;DHT22;52925;52.436;-1.952;2022-12-18T00:32:59;6.10;69.50
66128;DHT22;52925;52.436;-1.952;2022-12-18T00:34:20;6.20;69.50
66128;DHT22;52925;52.436;-1.952;2022-12-18T00:35:40;6.10;69.50
66128;DHT22;52925;52.436;-1.952;2022-12-18T00:37:00;6.20;69.50
66128;DHT22;52925;52.436;-1.952;2022-12-18T00:38:22;6.10;69.40
66128;DHT22;52925;52.436;-1.952;2022-12-18T00:39:43;6.10;69.50
66128;DHT22;52925;52.436;-1.952;2022-12-18T00:41:04;6.10;69.40
66128;DHT22;52925;52.436;-1.952;2022-12-18T00:42:23;6.20;69.40
66128;DHT22;52925;52.436;-1.952;2022-12-18T00:44:03;6.20;69.40
66128;DHT22;52925;52.436;-1.952;2022-12-18T00:45:23;6.10;69.30
66128;DHT22;52925;52.436;-1.952;2022-12-18T00:46:45;6.20;69.40
66128;DHT22;52925;52.436;-1.952;2022-12-18T00:48:06;6.20;69.40
66128;DHT22;52925;52.436;-1.952;2022-12-18T00:49:26;6.20;69.40
66128;DHT22;52925;52.436;-1.952;2022-12-18T00:50:48;6.10;69.30
66128;DHT22;52925;52.436;-1.952;2022-12-18T00:52:12;6.20;70.20
66128;DHT22;52925;52.436;-1.952;2022-12-18T00:53:34;6.10;69.30
66128;DHT22;52925;52.436;-1.952;2022-12-18T00:54:54;6.10;69.30
66128;DHT22;52925;52.436;-1.952;2022-12-18T00:56:15;6.10;69.30
66128;DHT22;52925;52.436;-1.952;2022-12-18T00:57:34;6.10;69.40
66128;DHT22;52925;52.436;-1.952;2022-12-18T00:58:56;6.10;69.40
66128;DHT22;52925;52.436;-1.952;2022-12-18T01:00:16;6.10;69.40
66128;DHT22;52925;52.436;-1.952;2022-12-18T01:01:38;6.10;69.40
66128;DHT22;52925;52.436;-1.952;2022-12-18T01:02:59;6.10;69.30
66128;DHT22;52925;52.436;-1.952;2022-12-18T01:04:20;6.10;69.30
66128;DHT22;52925;52.436;-1.952;2022-12-18T01:05:41;6.10;69.30
66128;DHT22;52925;52.436;-1.952;2022-12-18T01:07:02;6.10;69.30
66128;DHT22;52925;52.436;-1.952;2022-12-18T01:08:23;6.10;69.30
66128;DHT22;52925;52.436;-1.952;2022-12-18T01:09:45;6.10;69.20
66128;DHT22;52925;52.436;-1.952;2022-12-18T01:11:08;6.10;69.20
66128;DHT22;52925;52.436;-1.952;2022-12-18T01:12:29;6.20;69.20
66128;DHT22;52925;52.436;-1.952;2022-12-18T01:13:51;6.10;69.20
66128;DHT22;52925;52.436;-1.952;2022-12-18T01:15:12;6.10;69.20
66128;DHT22;52925;52.436;-1.952;2022-12-18T01:16:33;6.10;69.10
66128;DHT22;52925;52.436;-1.952;2022-12-18T01:17:53;6.10;69.10
66128;DHT22;52925;52.436;-1.952;2022-12-18T01:19:14;6.10;69.10
66128;DHT22;52925;52.436;-1.952;2022-12-18T01:20:35;6.10;69.10
66128;DHT22;52925;52.436;-1.952;2022-12-18T01:21:58;6.10;69.10
66128;DHT22;52925;52.436;-1.952;2022-12-18T01:23:19;6.10;69.10
66128;DHT22;52925;52.436;-1.952;2022-12-18T01:24:40;6.10;69.10
66128;DHT22;52925;52.436;-1.952;2022-12-18T01:26:06;6.10;69.10
66128;DHT22;52925;52.436;-1.952;2022-12-18T01:27:28;6.10;69.10
66128;DHT22;52925;52.436;-1.952;2022-12-18T01:28:49;6.10;69.10
66128;DHT22;52925;52.436;-1.952;2022-12-18T01:30:09;6.10;69.00
66128;DHT22;52925;52.436;-1.952;2022-12-18T01:31:32;6.10;69.00
66128;DHT22;52925;52.436;-1.952;2022-12-18T01:32:54;6.10;69.10
66128;DHT22;52925;52.436;-1.952;2022-12-18T01:34:15;6.10;69.10
66128;DHT22;52925;52.436;-1.952;2022-12-18T01:35:41;6.10;69.00
66128;DHT22;52925;52.436;-1.952;2022-12-18T01:37:02;6.10;69.10
66128;DHT22;52925;52.436;-1.952;2022-12-18T01:38:24;6.10;69.10
66128;DHT22;52925;52.436;-1.952;2022-12-18T01:39:45;6.10;69.10
66128;DHT22;52925;52.436;-1.952;2022-12-18T01:41:08;6.10;69.10
66128;DHT22;52925;52.436;-1.952;2022-12-18T01:42:29;6.10;69.10
66128;DHT22;52925;52.436;-1.952;2022-12-18T01:43:57;6.10;69.00
66128;DHT22;52925;52.436;-1.952;2022-12-18T01:45:26;6.10;69.00
66128;DHT22;52925;52.436;-1.952;2022-12-18T01:46:47;6.10;69.00
66128;DHT22;52925;52.436;-1.952;2022-12-18T01:48:08;6.10;69.00
66128;DHT22;52925;52.436;-1.952;2022-12-18T01:49:29;6.10;68.90
66128;DHT22;52925;52.436;-1.952;2022-12-18T01:50:49;6.10;68.90
66128;DHT22;52925;52.436;-1.952;2022-12-18T01:52:10;6.10;68.90
66128;DHT22;52925;52.436;-1.952;2022-12-18T01:53:30;6.10;68.90
66128;DHT22;52925;52.436;-1.952;2022-12-18T01:54:52;6.10;68.90
66128;DHT22;52925;52.436;-1.952;2022-12-18T01:56:15;6.10;68.90
66128;DHT22;52925;52.436;-1.952;2022-12-18T01:57:37;6.10;68.90
66128;DHT22;52925;52.436;-1.952;2022-12-18T01:59:00;6.10;68.90
66128;DHT22;52925;52.436;-1.952;2022-12-18T02:00:23;6.10;68.90
66128;DHT22;52925;52.436;-1.952;2022-12-18T02:01:44;6.10;68.80
66128;DHT22;52925;52.436;-1.952;2022-12-18T02:03:05;6.10;68.80
66128;DHT22;52925;52.436;-1.952;2022-12-18T02:04:28;6.10;68.80
66128;DHT22;52925;52.436;-1.952;2022-12-18T02:05:56;6.10;68.80
66128;DHT22;52925;52.436;-1.952;2022-12-18T02:07:26;6.10;68.80
66128;DHT22;52925;52.436;-1.952;2022-12-18T02:08:57;6.10;68.90
66128;DHT22;52925;52.436;-1.952;2022-12-18T02:10:23;6.10;68.80
66128;DHT22;52925;52.436;-1.952;2022-12-18T02:11:51;6.10;68.80
66128;DHT22;52925;52.436;-1.952;2022-12-18T02:13:19;6.10;68.80
66128;DHT22;52925;52.436;-1.952;2022-12-18T02:14:44;6.10;68.80
66128;DHT22;52925;52.436;-1.952;2022-12-18T02:16:10;6.00;68.80
66128;DHT22;52925;52.436;-1.952;2022-12-18T02:17:37;6.10;68.80
66128;DHT22;52925;52.436;-1.952;2022-12-18T02:19:03;6.00;68.80
66128;DHT22;52925;52.436;-1.952;2022-12-18T02:20:31;6.10;68.80
66128;DHT22;52925;52.436;-1.952;2022-12-18T02:21:59;6.10;68.80
66128;DHT22;52925;52.436;-1.952;2022-12-18T02:23:34;6.10;68.80
66128;DHT22;52925;52.436;-1.952;2022-12-18T02:25:06;6.10;69.50
66128;DHT22;52925;52.436;-1.952;2022-12-18T02:26:34;6.10;68.70
66128;DHT22;52925;52.436;-1.952;2022-12-18T02:27:56;6.10;68.70
66128;DHT22;52925;52.436;-1.952;2022-12-18T02:29:22;6.10;68.70
66128;DHT22;52925;52.436;-1.952;2022-12-18T02:30:45;6.10;68.70
66128;DHT22;52925;52.436;-1.952;2022-12-18T02:32:15;6.10;68.60
66128;DHT22;52925;52.436;-1.952;2022-12-18T02:33:37;6.10;68.70
66128;DHT22;52925;52.436;-1.952;2022-12-18T02:35:03;6.10;68.70
66128;DHT22;52925;52.436;-1.952;2022-12-18T02:36:27;6.00;68.60
66128;DHT22;52925;52.436;-1.952;2022-12-18T02:37:48;6.00;68.70
66128;DHT22;52925;52.436;-1.952;2022-12-18T02:39:14;6.10;68.70
66128;DHT22;52925;52.436;-1.952;2022-12-18T02:40:46;6.00;68.60
66128;DHT22;52925;52.436;-1.952;2022-12-18T02:42:12;6.00;68.60
66128;DHT22;52925;52.436;-1.952;2022-12-18T02:43:33;6.10;68.60
66128;DHT22;52925;52.436;-1.952;2022-12-18T02:44:55;6.10;68.70
66128;DHT22;52925;52.436;-1.952;2022-12-18T02:46:36;6.10;68.60
66128;DHT22;52925;52.436;-1.952;2022-12-18T02:48:03;6.10;68.60
66128;DHT22;52925;52.436;-1.952;2022-12-18T02:49:33;6.10;68.60
66128;DHT22;52925;52.436;-1.952;2022-12-18T02:50:59;6.00;68.60
66128;DHT22;52925;52.436;-1.952;2022-12-18T02:52:30;6.00;68.60
66128;DHT22;52925;52.436;-1.952;2022-12-18T02:54:00;6.00;68.60
66128;DHT22;52925;52.436;-1.952;2022-12-18T02:55:31;6.00;68.60
66128;DHT22;52925;52.436;-1.952;2022-12-18T02:57:05;6.00;68.70
66128;DHT22;52925;52.436;-1.952;2022-12-18T02:58:35;6.00;68.60
66128;DHT22;52925;52.436;-1.952;2022-12-18T03:00:07;6.00;68.70
66128;DHT22;52925;52.436;-1.952;2022-12-18T03:01:33;6.00;68.70
66128;DHT22;52925;52.436;-1.952;2022-12-18T03:02:59;6.00;68.70
66128;DHT22;52925;52.436;-1.952;2022-12-18T03:04:26;6.00;68.70
66128;DHT22;52925;52.436;-1.952;2022-12-18T03:05:53;6.00;68.60
66128;DHT22;52925;52.436;-1.952;2022-12-18T03:07:19;6.00;68.60
66128;DHT22;52925;52.436;-1.952;2022-12-18T03:08:46;6.00;68.60
66128;DHT22;52925;52.436;-1.952;2022-12-18T03:10:13;6.00;68.60
66128;DHT22;52925;52.436;-1.952;2022-12-18T03:11:37;6.00;68.60
66128;DHT22;52925;52.436;-1.952;2022-12-18T03:13:20;6.00;68.60
66128;DHT22;52925;52.436;-1.952;2022-12-18T03:14:45;6.00;68.60
66128;DHT22;52925;52.436;-1.952;2022-12-18T03:16:11;6.00;68.60
66128;DHT22;52925;52.436;-1.952;2022-12-18T03:17:33;6.00;68.70
66128;DHT22;52925;52.436;-1.952;2022-12-18T03:18:56;6.00;68.60
66128;DHT22;52925;52.436;-1.952;2022-12-18T03:20:21;6.00;68.60
66128;DHT22;52925;52.436;-1.952;2022-12-18T03:21:45;6.00;68.70
66128;DHT22;52925;52.436;-1.952;2022-12-18T03:23:11;6.00;68.60
66128;DHT22;52925;52.436;-1.952;2022-12-18T03:24:33;6.00;68.60
66128;DHT22;52925;52.436;-1.952;2022-12-18T03:26:05;6.00;68.60
66128;DHT22;52925;52.436;-1.952;2022-12-18T03:27:31;6.00;68.60
66128;DHT22;52925;52.436;-1.952;2022-12-18T03:29:00;6.00;68.70
66128;DHT22;52925;52.436;-1.952;2022-12-18T03:30:26;6.00;68.70
66128;DHT22;52925;52.436;-1.952;2022-12-18T03:31:51;6.00;68.70
66128;DHT22;52925;52.436;-1.952;2022-12-18T03:33:17;6.00;68.70
66128;DHT22;52925;52.436;-1.952;2022-12-18T03:34:42;6.00;68.70
66128;DHT22;52925;52.436;-1.952;2022-12-18T03:36:07;6.00;68.70
66128;DHT22;52925;52.436;-1.952;2022-12-18T03:37:30;6.00;68.70
66128;DHT22;52925;52.436;-1.952;2022-12-18T03:38:50;6.00;68.70
66128;DHT22;52925;52.436;-1.952;2022-12-18T03:40:11;6.00;68.70
66128;DHT22;52925;52.436;-1.952;2022-12-18T03:41:43;6.00;68.70
66128;DHT22;52925;52.436;-1.952;2022-12-18T03:43:37;6.00;68.70
66128;DHT22;52925;52.436;-1.952;2022-12-18T03:45:09;6.00;68.70
66128;DHT22;52925;52.436;-1.952;2022-12-18T03:46:38;6.00;68.70
66128;DHT22;52925;52.436;-1.952;2022-12-18T03:48:05;6.00;68.70
66128;DHT22;52925;52.436;-1.952;2022-12-18T03:49:36;6.00;68.70
66128;DHT22;52925;52.436;-1.952;2022-12-18T03:51:02;6.00;68.70
66128;DHT22;52925;52.436;-1.952;2022-12-18T03:52:32;6.00;68.80
66128;DHT22;52925;52.436;-1.952;2022-12-18T03:53:58;6.00;68.70
66128;DHT22;52925;52.436;-1.952;2022-12-18T03:55:24;6.00;68.70
66128;DHT22;52925;52.436;-1.952;2022-12-18T03:57:01;6.00;68.70
66128;DHT22;52925;52.436;-1.952;2022-12-18T03:58:25;6.00;68.70
66128;DHT22;52925;52.436;-1.952;2022-12-18T03:59:56;6.00;68.80
66128;DHT22;52925;52.436;-1.952;2022-12-18T04:01:26;6.00;68.80
66128;DHT22;52925;52.436;-1.952;2022-12-18T04:02:53;6.00;68.80
66128;DHT22;52925;52.436;-1.952;2022-12-18T04:04:20;6.00;68.80
66128;DHT22;52925;52.436;-1.952;2022-12-18T04:05:43;6.00;68.80
66128;DHT22;52925;52.436;-1.952;2022-12-18T04:07:03;6.00;68.80
66128;DHT22;52925;52.436;-1.952;2022-12-18T04:08:27;6.00;68.80
66128;DHT22;52925;52.436;-1.952;2022-12-18T04:09:57;6.00;68.80
66128;DHT22;52925;52.436;-1.952;2022-12-18T04:11:19;6.00;68.80
66128;DHT22;52925;52.436;-1.952;2022-12-18T04:12:41;6.00;68.90
66128;DHT22;52925;52.436;-1.952;2022-12-18T04:14:04;6.00;68.90
66128;DHT22;52925;52.436;-1.952;2022-12-18T04:15:25;6.00;68.90
66128;DHT22;52925;52.436;-1.952;2022-12-18T04:16:45;6.00;68.90
66128;DHT22;52925;52.436;-1.952;2022-12-18T04:18:10;6.00;68.90
66128;DHT22;52925;52.436;-1.952;2022-12-18T04:19:35;6.00;68.90
66128;DHT22;52925;52.436;-1.952;2022-12-18T04:20:56;6.00;68.90
66128;DHT22;52925;52.436;-1.952;2022-12-18T04:22:16;6.00;68.90
66128;DHT22;52925;52.436;-1.952;2022-12-18T04:23:41;6.00;68.90
66128;DHT22;52925;52.436;-1.952;2022-12-18T04:25:01;6.00;68.90
66128;DHT22;52925;52.436;-1.952;2022-12-18T04:26:31;6.00;68.90
66128;DHT22;52925;52.436;-1.952;2022-12-18T04:28:09;6.00;68.90
66128;DHT22;52925;52.436;-1.952;2022-12-18T04:29:31;6.00;69.00
66128;DHT22;52925;52.436;-1.952;2022-12-18T04:30:52;6.00;69.00
66128;DHT22;52925;52.436;-1.952;2022-12-18T04:32:14;6.00;69.00
66128;DHT22;52925;52.436;-1.952;2022-12-18T04:33:38;6.00;69.00
66128;DHT22;52925;52.436;-1.952;2022-12-18T04:35:00;6.00;69.00
66128;DHT22;52925;52.436;-1.952;2022-12-18T04:36:26;6.00;69.00
66128;DHT22;52925;52.436;-1.952;2022-12-18T04:37:47;6.00;69.00
66128;DHT22;52925;52.436;-1.952;2022-12-18T04:39:08;6.00;69.00
66128;DHT22;52925;52.436;-1.952;2022-12-18T04:40:29;6.00;69.00
66128;DHT22;52925;52.436;-1.952;2022-12-18T04:41:50;6.00;69.00
66128;DHT22;52925;52.436;-1.952;2022-12-18T04:43:11;6.00;69.00
66128;DHT22;52925;52.436;-1.952;2022-12-18T04:44:30;6.00;69.00
66128;DHT22;52925;52.436;-1.952;2022-12-18T04:46:01;6.00;69.00
66128;DHT22;52925;52.436;-1.952;2022-12-18T04:47:23;6.00;69.00
66128;DHT22;52925;52.436;-1.952;2022-12-18T04:48:45;6.00;69.00
66128;DHT22;52925;52.436;-1.952;2022-12-18T04:50:07;6.00;69.00
66128;DHT22;52925;52.436;-1.952;2022-12-18T04:51:27;6.00;69.70
66128;DHT22;52925;52.436;-1.952;2022-12-18T04:52:47;6.00;69.00
66128;DHT22;52925;52.436;-1.952;2022-12-18T04:54:07;6.00;69.00
66128;DHT22;52925;52.436;-1.952;2022-12-18T04:55:28;6.00;69.00
66128;DHT22;52925;52.436;-1.952;2022-12-18T04:56:49;6.00;69.00
66128;DHT22;52925;52.436;-1.952;2022-12-18T04:58:09;6.00;69.00
66128;DHT22;52925;52.436;-1.952;2022-12-18T04:59:29;6.00;69.00
66128;DHT22;52925;52.436;-1.952;2022-12-18T05:00:50;6.00;69.00
66128;DHT22;52925;52.436;-1.952;2022-12-18T05:02:09;6.00;69.00
66128;DHT22;52925;52.436;-1.952;2022-12-18T05:03:31;6.00;69.00
66128;DHT22;52925;52.436;-1.952;2022-12-18T05:04:52;6.00;69.10
66128;DHT22;52925;52.436;-1.952;2022-12-18T05:06:13;6.00;69.10
66128;DHT22;52925;52.436;-1.952;2022-12-18T05:07:34;6.00;69.10
66128;DHT22;52925;52.436;-1.952;2022-12-18T05:08:54;6.00;69.10
66128;DHT22;52925;52.436;-1.952;2022-12-18T05:10:15;6.00;69.10
66128;DHT22;52925;52.436;-1.952;2022-12-18T05:11:36;6.00;69.10
66128;DHT22;52925;52.436;-1.952;2022-12-18T05:12:56;6.00;69.10
66128;DHT22;52925;52.436;-1.952;2022-12-18T05:14:20;6.00;69.10
66128;DHT22;52925;52.436;-1.952;2022-12-18T05:15:40;6.00;69.10
66128;DHT22;52925;52.436;-1.952;2022-12-18T05:17:02;6.00;69.10
66128;DHT22;52925;52.436;-1.952;2022-12-18T05:18:23;6.00;69.10
66128;DHT22;52925;52.436;-1.952;2022-12-18T05:19:43;6.00;69.10
66128;DHT22;52925;52.436;-1.952;2022-12-18T05:21:05;6.00;69.10
66128;DHT22;52925;52.436;-1.952;2022-12-18T05:22:25;6.00;69.10
66128;DHT22;52925;52.436;-1.952;2022-12-18T05:23:46;6.00;69.10
66128;DHT22;52925;52.436;-1.952;2022-12-18T05:25:07;6.00;69.10
66128;DHT22;52925;52.436;-1.952;2022-12-18T05:26:30;6.00;69.10
66128;DHT22;52925;52.436;-1.952;2022-12-18T05:27:50;6.00;69.10
66128;DHT22;52925;52.436;-1.952;2022-12-18T05:29:11;6.00;69.10
66128;DHT22;52925;52.436;-1.952;2022-12-18T05:30:32;6.10;69.10
66128;DHT22;52925;52.436;-1.952;2022-12-18T05:31:53;6.00;69.10
66128;DHT22;52925;52.436;-1.952;2022-12-18T05:33:14;6.10;69.20
66128;DHT22;52925;52.436;-1.952;2022-12-18T05:34:33;6.00;69.10
66128;DHT22;52925;52.436;-1.952;2022-12-18T05:35:56;6.00;69.20
66128;DHT22;52925;52.436;-1.952;2022-12-18T05:37:20;6.00;69.20
66128;DHT22;52925;52.436;-1.952;2022-12-18T05:38:41;6.00;69.20
66128;DHT22;52925;52.436;-1.952;2022-12-18T05:40:01;6.00;69.20
66128;DHT22;52925;52.436;-1.952;2022-12-18T05:41:23;6.00;69.20
66128;DHT22;52925;52.436;-1.952;2022-12-18T05:42:43;6.00;69.20
66128;DHT22;52925;52.436;-1.952;2022-12-18T05:44:03;6.00;69.20
66128;DHT22;52925;52.436;-1.952;2022-12-18T05:45:24;6.00;69.20
66128;DHT22;52925;52.436;-1.952;2022-12-18T05:46:44;6.00;69.20
66128;DHT22;52925;52.436;-1.952;2022-12-18T05:48:06;6.00;69.20
66128;DHT22;52925;52.436;-1.952;2022-12-18T05:49:26;6.00;69.20
66128;DHT22;52925;52.436;-1.952;2022-12-18T05:50:48;6.00;69.30
66128;DHT22;52925;52.436;-1.952;2022-12-18T05:52:09;6.00;69.20
66128;DHT22;52925;52.436;-1.952;2022-12-18T05:53:31;6.00;69.20
66128;DHT22;52925;52.436;-1.952;2022-12-18T05:54:51;6.00;69.20
66128;DHT22;52925;52.436;-1.952;2022-12-18T05:56:14;6.00;69.20
66128;DHT22;52925;52.436;-1.952;2022-12-18T05:57:34;6.00;69.20
66128;DHT22;52925;52.436;-1.952;2022-12-18T05:58:54;6.00;69.20
66128;DHT22;52925;52.436;-1.952;2022-12-18T06:00:16;6.00;69.30
66128;DHT22;52925;52.436;-1.952;2022-12-18T06:01:36;6.00;69.20
66128;DHT22;52925;52.436;-1.952;2022-12-18T06:02:57;6.00;69.20
66128;DHT22;52925;52.436;-1.952;2022-12-18T06:04:17;6.00;69.20
66128;DHT22;52925;52.436;-1.952;2022-12-18T06:05:39;6.00;69.20
66128;DHT22;52925;52.436;-1.952;2022-12-18T06:07:01;6.00;69.20
66128;DHT22;52925;52.436;-1.952;2022-12-18T06:08:22;6.00;69.20
66128;DHT22;52925;52.436;-1.952;2022-12-18T06:09:43;6.00;69.20
66128;DHT22;52925;52.436;-1.952;2022-12-18T06:11:04;6.00;69.20
66128;DHT22;52925;52.436;-1.952;2022-12-18T06:12:24;6.00;69.30
66128;DHT22;52925;52.436;-1.952;2022-12-18T06:13:46;6.00;69.30
66128;DHT22;52925;52.436;-1.952;2022-12-18T06:15:06;6.00;69.30
66128;DHT22;52925;52.436;-1.952;2022-12-18T06:16:28;6.00;69.30
66128;DHT22;52925;52.436;-1.952;2022-12-18T06:17:49;6.00;69.30
66128;DHT22;52925;52.436;-1.952;2022-12-18T06:19:14;6.00;69.30
66128;DHT22;52925;52.436;-1.952;2022-12-18T06:20:35;6.00;69.30
66128;DHT22;52925;52.436;-1.952;2022-12-18T06:21:56;6.00;69.30
66128;DHT22;52925;52.436;-1.952;2022-12-18T06:23:18;6.00;69.70
66128;DHT22;52925;52.436;-1.952;2022-12-18T06:24:38;6.00;69.30
66128;DHT22;52925;52.436;-1.952;2022-12-18T06:26:03;6.00;69.30
66128;DHT22;52925;52.436;-1.952;2022-12-18T06:27:23;6.00;69.30
66128;DHT22;52925;52.436;-1.952;2022-12-18T06:28:47;6.00;69.30
66128;DHT22;52925;52.436;-1.952;2022-12-18T06:30:08;6.00;69.30
66128;DHT22;52925;52.436;-1.952;2022-12-18T06:31:29;6.00;69.40
66128;DHT22;52925;52.436;-1.952;2022-12-18T06:32:50;6.00;69.40
66128;DHT22;52925;52.436;-1.952;2022-12-18T06:34:10;6.00;69.30
66128;DHT22;52925;52.436;-1.952;2022-12-18T06:35:32;6.00;69.30
66128;DHT22;52925;52.436;-1.952;2022-12-18T06:36:52;6.00;69.30
66128;DHT22;52925;52.436;-1.952;2022-12-18T06:38:16;6.00;69.30
66128;DHT22;52925;52.436;-1.952;2022-12-18T06:39:36;6.00;69.30
66128;DHT22;52925;52.436;-1.952;2022-12-18T06:40:57;6.00;69.40
66128;DHT22;52925;52.436;-1.952;2022-12-18T06:42:18;6.00;69.40
66128;DHT22;52925;52.436;-1.952;2022-12-18T06:43:39;6.00;69.40
66128;DHT22;52925;52.436;-1.952;2022-12-18T06:44:59;6.00;69.40
66128;DHT22;52925;52.436;-1.952;2022-12-18T06:46:20;6.00;69.40
66128;DHT22;52925;52.436;-1.952;2022-12-18T06:47:40;6.00;69.40
66128;DHT22;52925;52.436;-1.952;2022-12-18T06:49:01;6.00;69.40
66128;DHT22;52925;52.436;-1.952;2022-12-18T06:50:22;6.00;69.30
66128;DHT22;52925;52.436;-1.952;2022-12-18T06:51:43;6.00;69.40
66128;DHT22;52925;52.436;-1.952;2022-12-18T06:53:03;6.00;69.40
66128;DHT22;52925;52.436;-1.952;2022-12-18T06:54:23;6.00;69.40
66128;DHT22;52925;52.436;-1.952;2022-12-18T06:55:44;6.00;69.40
66128;DHT22;52925;52.436;-1.952;2022-12-18T06:57:04;6.00;69.40
66128;DHT22;52925;52.436;-1.952;2022-12-18T06:58:27;6.00;69.30
66128;DHT22;52925;52.436;-1.952;2022-12-18T06:59:46;6.00;69.40
66128;DHT22;52925;52.436;-1.952;2022-12-18T07:01:08;6.00;69.40
66128;DHT22;52925;52.436;-1.952;2022-12-18T07:02:30;6.00;69.50
66128;DHT22;52925;52.436;-1.952;2022-12-18T07:03:52;6.00;69.40
66128;DHT22;52925;52.436;-1.952;2022-12-18T07:05:14;6.00;69.40
66128;DHT22;52925;52.436;-1.952;2022-12-18T07:06:34;6.00;69.50
66128;DHT22;52925;52.436;-1.952;2022-12-18T07:07:54;6.00;69.50
66128;DHT22;52925;52.436;-1.952;2022-12-18T07:09:15;6.00;69.40
66128;DHT22;52925;52.436;-1.952;2022-12-18T07:10:41;6.00;69.40
66128;DHT22;52925;52.436;-1.952;2022-12-18T07:12:01;6.00;69.40
66128;DHT22;52925;52.436;-1.952;2022-12-18T07:13:25;6.00;69.40
66128;DHT22;52925;52.436;-1.952;2022-12-18T07:14:46;6.00;69.40
66128;DHT22;52925;52.436;-1.952;2022-12-18T07:16:08;6.10;69.50
66128;DHT22;52925;52.436;-1.952;2022-12-18T07:17:31;6.00;69.40
66128;DHT22;52925;52.436;-1.952;2022-12-18T07:18:51;6.00;69.50
66128;DHT22;52925;52.436;-1.952;2022-12-18T07:20:12;6.00;69.50
66128;DHT22;52925;52.436;-1.952;2022-12-18T07:21:33;6.00;69.50
66128;DHT22;52925;52.436;-1.952;2022-12-18T07:22:56;6.00;69.50
66128;DHT22;52925;52.436;-1.952;2022-12-18T07:24:17;6.10;69.60
66128;DHT22;52925;52.436;-1.952;2022-12-18T07:25:38;6.00;69.50
66128;DHT22;52925;52.436;-1.952;2022-12-18T07:26:59;6.00;69.50
66128;DHT22;52925;52.436;-1.952;2022-12-18T07:28:19;6.00;69.60
66128;DHT22;52925;52.436;-1.952;2022-12-18T07:29:42;6.00;69.50
66128;DHT22;52925;52.436;-1.952;2022-12-18T07:31:02;6.10;69.60
66128;DHT22;52925;52.436;-1.952;2022-12-18T07:32:25;6.00;69.50
66128;DHT22;52925;52.436;-1.952;2022-12-18T07:33:46;6.10;69.60
66128;DHT22;52925;52.436;-1.952;2022-12-18T07:35:11;6.10;69.60
66128;DHT22;52925;52.436;-1.952;2022-12-18T07:36:32;6.00;69.60
66128;DHT22;52925;52.436;-1.952;2022-12-18T07:37:53;6.10;69.60
66128;DHT22;52925;52.436;-1.952;2022-12-18T07:39:14;6.00;69.80
66128;DHT22;52925;52.436;-1.952;2022-12-18T07:40:35;6.10;69.70
66128;DHT22;52925;52.436;-1.952;2022-12-18T07:41:56;6.10;69.60
66128;DHT22;52925;52.436;-1.952;2022-12-18T07:43:35;6.00;69.60
66128;DHT22;52925;52.436;-1.952;2022-12-18T07:44:58;6.00;69.60
66128;DHT22;52925;52.436;-1.952;2022-12-18T07:46:19;6.10;69.60
66128;DHT22;52925;52.436;-1.952;2022-12-18T07:47:40;6.10;69.70
66128;DHT22;52925;52.436;-1.952;2022-12-18T07:49:00;6.10;69.60
66128;DHT22;52925;52.436;-1.952;2022-12-18T07:50:21;6.10;69.60
66128;DHT22;52925;52.436;-1.952;2022-12-18T07:51:43;6.10;69.70
66128;DHT22;52925;52.436;-1.952;2022-12-18T07:53:08;6.10;69.70
66128;DHT22;52925;52.436;-1.952;2022-12-18T07:54:29;6.10;69.70
66128;DHT22;52925;52.436;-1.952;2022-12-18T07:55:55;6.10;69.70
66128;DHT22;52925;52.436;-1.952;2022-12-18T07:57:15;6.10;69.70
66128;DHT22;52925;52.436;-1.952;2022-12-18T07:58:37;6.10;69.70
66128;DHT22;52925;52.436;-1.952;2022-12-18T07:59:59;6.10;69.70
66128;DHT22;52925;52.436;-1.952;2022-12-18T08:01:20;6.10;69.70
66128;DHT22;52925;52.436;-1.952;2022-12-18T08:02:43;6.00;69.70
66128;DHT22;52925;52.436;-1.952;2022-12-18T08:04:04;6.10;69.70
66128;DHT22;52925;52.436;-1.952;2022-12-18T08:05:25;6.10;69.70
66128;DHT22;52925;52.436;-1.952;2022-12-18T08:06:46;6.10;70.10
66128;DHT22;52925;52.436;-1.952;2022-12-18T08:08:07;6.10;69.70
66128;DHT22;52925;52.436;-1.952;2022-12-18T08:09:28;6.10;69.80
66128;DHT22;52925;52.436;-1.952;2022-12-18T08:10:48;6.10;69.80
66128;DHT22;52925;52.436;-1.952;2022-12-18T08:12:09;6.10;69.80
66128;DHT22;52925;52.436;-1.952;2022-12-18T08:13:30;6.00;69.80
66128;DHT22;52925;52.436;-1.952;2022-12-18T08:14:51;6.00;69.80
66128;DHT22;52925;52.436;-1.952;2022-12-18T08:16:13;6.10;69.90
66128;DHT22;52925;52.436;-1.952;2022-12-18T08:17:34;6.10;69.80
66128;DHT22;52925;52.436;-1.952;2022-12-18T08:18:55;6.10;69.90
66128;DHT22;52925;52.436;-1.952;2022-12-18T08:20:16;6.10;69.90
66128;DHT22;52925;52.436;-1.952;2022-12-18T08:21:37;6.00;69.80
66128;DHT22;52925;52.436;-1.952;2022-12-18T08:22:58;6.10;69.90
66128;DHT22;52925;52.436;-1.952;2022-12-18T08:24:19;6.10;69.90
66128;DHT22;52925;52.436;-1.952;2022-12-18T08:25:40;6.10;69.90
66128;DHT22;52925;52.436;-1.952;2022-12-18T08:27:01;6.10;69.90
66128;DHT22;52925;52.436;-1.952;2022-12-18T08:28:22;6.10;69.90
66128;DHT22;52925;52.436;-1.952;2022-12-18T08:29:43;6.10;69.90
66128;DHT22;52925;52.436;-1.952;2022-12-18T08:31:04;6.10;69.90
66128;DHT22;52925;52.436;-1.952;2022-12-18T08:32:27;6.10;69.90
66128;DHT22;52925;52.436;-1.952;2022-12-18T08:33:49;6.10;69.90
66128;DHT22;52925;52.436;-1.952;2022-12-18T08:35:09;6.10;70.00
66128;DHT22;52925;52.436;-1.952;2022-12-18T08:36:31;6.10;70.00
66128;DHT22;52925;52.436;-1.952;2022-12-18T08:37:52;6.10;70.00
66128;DHT22;52925;52.436;-1.952;2022-12-18T08:39:13;6.10;70.00
66128;DHT22;52925;52.436;-1.952;2022-12-18T08:40:33;6.10;70.00
66128;DHT22;52925;52.436;-1.952;2022-12-18T08:41:54;6.10;70.00
66128;DHT22;52925;52.436;-1.952;2022-12-18T08:43:32;6.10;70.00